Terminal Aerodrome Forecast
Issued by NWS Newport/Morehead City, NC

Home | Current Version | Previous Version | Graphics & Text | Print | Product List | Glossary On
Versions: 1 2 3 4 5 6 7 8 9 10 11 12 13 14 15 16 17 18 19
307
FTUS42 KMHX 290206 AAB
TAFEWN
TAF AMD
KEWN 290206Z 2902/2924 VRB03KT 4SM BR SCT002 SCT120
      TEMPO 2902/2905 1/2SM FG BKN002
     FM290500 VRB03KT 2SM BR BKN002
      TEMPO 2905/2909 1/2SM FG BKN002
     FM291200 36006KT P6SM SCT030
      TEMPO 2912/2915 BKN030
     FM291500 03008KT P6SM SCT200=

USA.gov is the U.S. government's official web portal to all federal, state and local government web resources and services.